createdAt,value
2017-09-12T00:00:03.804Z,0
2017-09-12T00:00:29.953Z,0
2017-09-12T00:00:56.096Z,0
2017-09-12T00:01:22.220Z,0
2017-09-12T00:01:48.345Z,0
2017-09-12T00:02:14.462Z,0
2017-09-12T00:02:40.584Z,0
2017-09-12T00:03:06.734Z,0
2017-09-12T00:03:32.854Z,0
2017-09-12T00:03:58.987Z,0
2017-09-12T00:04:25.113Z,0
2017-09-12T00:04:51.231Z,0
2017-09-12T00:05:17.360Z,0
2017-09-12T00:05:43.473Z,0
2017-09-12T00:06:09.594Z,0
2017-09-12T00:06:35.737Z,0
2017-09-12T00:07:01.859Z,0
2017-09-12T00:07:27.988Z,0
2017-09-12T00:07:54.105Z,0
2017-09-12T00:08:20.230Z,0
2017-09-12T00:08:46.357Z,0
2017-09-12T00:09:12.478Z,0
2017-09-12T00:09:38.607Z,0
2017-09-12T00:10:04.735Z,0
2017-09-12T00:10:30.855Z,0
2017-09-12T00:10:56.975Z,0
2017-09-12T00:11:23.100Z,0
2017-09-12T00:11:49.239Z,0
2017-09-12T00:12:15.360Z,0
2017-09-12T00:12:41.488Z,0
2017-09-12T00:13:07.610Z,0
2017-09-12T00:13:33.737Z,0
2017-09-12T00:13:59.862Z,0
2017-09-12T00:14:25.985Z,0
2017-09-12T00:14:52.110Z,0
2017-09-12T00:15:18.228Z,0
2017-09-12T00:15:44.358Z,0
2017-09-12T00:16:10.478Z,0
2017-09-12T00:16:36.599Z,0
2017-09-12T00:17:02.728Z,0
2017-09-12T00:17:28.846Z,0
2017-09-12T00:17:54.973Z,0
2017-09-12T00:18:21.095Z,0
2017-09-12T00:18:47.223Z,0
2017-09-12T00:19:13.361Z,0
2017-09-12T00:19:39.490Z,0
2017-09-12T00:20:05.616Z,0
2017-09-12T00:20:31.733Z,0
2017-09-12T00:20:57.862Z,0
2017-09-12T00:21:23.998Z,0
2017-09-12T00:21:50.119Z,0
2017-09-12T00:22:16.247Z,0
2017-09-12T00:22:42.370Z,0
2017-09-12T00:23:08.491Z,0
2017-09-12T00:23:34.615Z,0
2017-09-12T00:24:00.743Z,0
2017-09-12T00:24:26.862Z,0
2017-09-12T00:24:52.990Z,0
2017-09-12T00:25:19.109Z,0
2017-09-12T00:25:45.239Z,0
2017-09-12T00:26:11.366Z,0
2017-09-12T00:26:37.484Z,0
2017-09-12T00:27:03.613Z,0
2017-09-12T00:27:29.727Z,0
2017-09-12T00:27:55.848Z,0
2017-09-12T00:28:21.973Z,0
2017-09-12T00:28:48.099Z,0
2017-09-12T00:29:14.251Z,0
2017-09-12T00:29:40.375Z,0
2017-09-12T00:30:06.496Z,0
2017-09-12T00:30:32.624Z,0
2017-09-12T00:30:58.749Z,0
2017-09-12T00:31:24.868Z,0
2017-09-12T00:31:50.998Z,0
2017-09-12T00:32:17.118Z,0
2017-09-12T00:32:43.238Z,0
2017-09-12T00:33:09.365Z,0
2017-09-12T00:33:35.486Z,0
2017-09-12T00:34:01.611Z,0
2017-09-12T00:34:27.737Z,0
2017-09-12T00:34:53.849Z,0
2017-09-12T00:35:19.995Z,0
2017-09-12T00:35:46.126Z,0
2017-09-12T00:36:12.272Z,0
2017-09-12T00:36:38.412Z,0
2017-09-12T00:37:04.540Z,0
2017-09-12T00:37:30.659Z,0
2017-09-12T00:37:56.785Z,0
2017-09-12T00:38:22.906Z,0
2017-09-12T00:38:49.036Z,0
2017-09-12T00:39:15.155Z,0
2017-09-12T00:39:41.284Z,0
2017-09-12T00:40:07.410Z,0
2017-09-12T00:40:33.527Z,0
2017-09-12T00:40:59.648Z,0
2017-09-12T00:41:25.773Z,0
2017-09-12T00:41:51.902Z,0
2017-09-12T00:42:18.022Z,0
2017-09-12T00:42:44.150Z,0
2017-09-12T00:43:10.268Z,0
2017-09-12T00:43:36.388Z,0
2017-09-12T00:44:02.515Z,0
2017-09-12T00:44:28.635Z,0
2017-09-12T00:44:54.762Z,0
2017-09-12T00:45:20.888Z,0
2017-09-12T00:45:47.009Z,0
2017-09-12T00:46:13.133Z,0
2017-09-12T00:46:39.256Z,0
2017-09-12T00:47:05.384Z,0
2017-09-12T00:47:31.509Z,0
2017-09-12T00:47:57.655Z,0
2017-09-12T00:48:23.778Z,0
2017-09-12T00:48:49.891Z,0
2017-09-12T00:49:16.015Z,0
2017-09-12T00:49:42.143Z,0
2017-09-12T00:50:08.267Z,0
2017-09-12T00:50:34.415Z,0
2017-09-12T00:51:00.563Z,0
2017-09-12T00:51:26.703Z,0
2017-09-12T00:51:52.858Z,0
2017-09-12T00:52:19.000Z,0
2017-09-12T00:52:45.150Z,0
2017-09-12T00:53:11.299Z,0
2017-09-12T00:53:37.450Z,0
2017-09-12T00:54:03.599Z,0
2017-09-12T00:54:29.741Z,0
2017-09-12T00:54:55.895Z,0
2017-09-12T00:55:22.040Z,0
2017-09-12T00:55:48.192Z,0
2017-09-12T00:56:14.340Z,0
2017-09-12T00:56:40.477Z,0
2017-09-12T00:57:06.627Z,0
2017-09-12T00:57:32.776Z,0
2017-09-12T00:57:58.917Z,0
2017-09-12T00:58:25.064Z,0
2017-09-12T00:58:51.215Z,0
2017-09-12T00:59:17.348Z,0
2017-09-12T00:59:43.497Z,0
2017-09-12T01:00:09.646Z,0
2017-09-12T01:00:35.791Z,0
2017-09-12T01:01:01.934Z,0
2017-09-12T01:01:28.090Z,0
2017-09-12T01:01:54.232Z,0
2017-09-12T01:02:20.383Z,0
2017-09-12T01:02:46.526Z,0
2017-09-12T01:03:12.682Z,0
2017-09-12T01:03:38.824Z,0
2017-09-12T01:04:04.978Z,0
2017-09-12T01:04:31.151Z,0
2017-09-12T01:04:57.288Z,0
2017-09-12T01:05:23.437Z,0
2017-09-12T01:05:49.590Z,0
2017-09-12T01:06:15.732Z,0
2017-09-12T01:06:41.874Z,0
2017-09-12T01:07:08.026Z,0
2017-09-12T01:07:34.167Z,0
2017-09-12T01:08:00.317Z,0
2017-09-12T01:08:26.464Z,0
2017-09-12T01:08:52.616Z,0
2017-09-12T01:09:18.761Z,0
2017-09-12T01:09:44.903Z,0
2017-09-12T01:10:11.055Z,0
2017-09-12T01:10:37.195Z,0
2017-09-12T01:11:03.342Z,0
2017-09-12T01:11:29.497Z,0
2017-09-12T01:11:55.636Z,0
2017-09-12T01:12:21.782Z,0
2017-09-12T01:12:47.950Z,0
2017-09-12T01:13:14.096Z,0
2017-09-12T01:13:40.251Z,0
2017-09-12T01:14:06.402Z,0
2017-09-12T01:14:32.543Z,0
2017-09-12T01:14:58.696Z,0
2017-09-12T01:15:24.839Z,0
2017-09-12T01:15:50.982Z,0
2017-09-12T01:16:17.127Z,0
2017-09-12T01:16:43.272Z,0
2017-09-12T01:17:09.415Z,0
2017-09-12T01:17:35.570Z,0
2017-09-12T01:18:01.717Z,0
2017-09-12T01:18:27.861Z,0
2017-09-12T01:18:54.014Z,0
2017-09-12T01:19:20.157Z,0
2017-09-12T01:19:46.305Z,0
2017-09-12T01:20:12.455Z,0
2017-09-12T01:20:38.601Z,0
2017-09-12T01:21:04.744Z,0
2017-09-12T01:21:30.900Z,0
2017-09-12T01:21:57.041Z,0
2017-09-12T01:22:23.195Z,0
2017-09-12T01:22:49.343Z,0
2017-09-12T01:23:15.489Z,0
2017-09-12T01:23:41.631Z,0
2017-09-12T01:24:07.784Z,0
2017-09-12T01:24:33.931Z,0
2017-09-12T01:25:00.072Z,0
2017-09-12T01:25:26.223Z,0
2017-09-12T01:25:52.385Z,0
2017-09-12T01:26:18.513Z,0
2017-09-12T01:26:44.656Z,0
2017-09-12T01:27:10.802Z,0
2017-09-12T01:27:36.951Z,0
2017-09-12T01:28:03.101Z,0
2017-09-12T01:28:29.241Z,0
2017-09-12T01:28:55.396Z,0
2017-09-12T01:29:21.537Z,0
2017-09-12T01:29:47.683Z,0
2017-09-12T01:30:13.829Z,0
2017-09-12T01:30:39.976Z,0
2017-09-12T01:31:06.122Z,0
2017-09-12T01:31:32.268Z,0
2017-09-12T01:31:58.417Z,0
2017-09-12T01:32:24.563Z,0
2017-09-12T01:32:50.717Z,0
2017-09-12T01:33:16.867Z,0
2017-09-12T01:33:43.009Z,0
2017-09-12T01:34:09.162Z,0
2017-09-12T01:34:35.307Z,0
2017-09-12T01:35:01.452Z,0
2017-09-12T01:35:27.602Z,0
2017-09-12T01:35:53.750Z,0
2017-09-12T01:36:19.888Z,0
2017-09-12T01:36:46.034Z,0
2017-09-12T01:37:12.181Z,0
2017-09-12T01:37:38.336Z,0
2017-09-12T01:38:04.483Z,0
2017-09-12T01:38:30.633Z,0
2017-09-12T01:38:56.784Z,0
2017-09-12T01:39:22.935Z,0
2017-09-12T01:39:49.080Z,0
2017-09-12T01:40:15.232Z,0
2017-09-12T01:40:41.378Z,0
2017-09-12T01:41:07.525Z,0
2017-09-12T01:41:33.696Z,0
2017-09-12T01:41:59.833Z,0
2017-09-12T01:42:25.986Z,0
2017-09-12T01:42:52.126Z,0
2017-09-12T01:43:18.273Z,0
2017-09-12T01:43:44.412Z,0
2017-09-12T01:44:10.564Z,0
2017-09-12T01:44:36.734Z,0
2017-09-12T01:45:02.885Z,0
2017-09-12T01:45:29.027Z,0
2017-09-12T01:45:55.187Z,0
2017-09-12T01:46:21.357Z,0
2017-09-12T01:46:47.480Z,0
2017-09-12T01:47:13.622Z,0
2017-09-12T01:47:39.774Z,0
2017-09-12T01:48:05.919Z,0
2017-09-12T01:48:32.065Z,0
2017-09-12T01:48:58.213Z,0
2017-09-12T01:49:24.363Z,0
2017-09-12T01:49:50.513Z,0
2017-09-12T01:50:16.655Z,0
2017-09-12T01:50:42.809Z,0
2017-09-12T01:51:08.949Z,0
2017-09-12T01:51:35.096Z,0
2017-09-12T01:52:01.244Z,0
2017-09-12T01:52:27.395Z,0
2017-09-12T01:52:53.561Z,0
2017-09-12T01:53:19.705Z,0
2017-09-12T01:53:45.865Z,0
2017-09-12T01:54:12.003Z,0
2017-09-12T01:54:38.153Z,0
2017-09-12T01:55:04.294Z,0
2017-09-12T01:55:30.444Z,0
2017-09-12T01:55:56.613Z,0
2017-09-12T01:56:22.765Z,0
2017-09-12T01:56:48.908Z,0
2017-09-12T01:57:15.063Z,0
2017-09-12T01:57:41.204Z,0
2017-09-12T01:58:07.354Z,0
2017-09-12T01:58:33.503Z,0
2017-09-12T01:58:59.646Z,0
2017-09-12T01:59:25.790Z,0
2017-09-12T01:59:51.942Z,0
2017-09-12T02:00:18.089Z,0
2017-09-12T02:00:44.231Z,0
2017-09-12T02:01:10.376Z,0
2017-09-12T02:01:36.528Z,0
2017-09-12T02:02:02.677Z,0
2017-09-12T02:02:28.822Z,0
2017-09-12T02:02:54.972Z,0
2017-09-12T02:03:21.109Z,0
2017-09-12T02:03:47.261Z,0
2017-09-12T02:04:13.402Z,0
2017-09-12T02:04:39.554Z,0
2017-09-12T02:05:05.698Z,0
2017-09-12T02:05:31.871Z,0
2017-09-12T02:05:58.021Z,0
2017-09-12T02:06:24.171Z,0
2017-09-12T02:06:50.314Z,0
2017-09-12T02:07:16.456Z,0
2017-09-12T02:07:42.612Z,0
2017-09-12T02:08:08.783Z,0
2017-09-12T02:08:34.928Z,0
2017-09-12T02:09:01.073Z,0
2017-09-12T02:09:27.224Z,0
2017-09-12T02:09:53.367Z,0
2017-09-12T02:10:19.510Z,0
2017-09-12T02:10:45.692Z,0
2017-09-12T02:11:11.842Z,0
2017-09-12T02:11:37.990Z,0
2017-09-12T02:12:04.130Z,0
2017-09-12T02:12:30.274Z,0
2017-09-12T02:12:56.427Z,0
2017-09-12T02:13:22.568Z,0
2017-09-12T02:13:48.719Z,0
2017-09-12T02:14:14.869Z,0
2017-09-12T02:14:41.014Z,0
2017-09-12T02:15:07.154Z,0
2017-09-12T02:15:33.298Z,0
2017-09-12T02:15:59.453Z,0
2017-09-12T02:16:25.590Z,0
2017-09-12T02:16:51.742Z,0
2017-09-12T02:17:17.891Z,0
2017-09-12T02:17:44.038Z,0
2017-09-12T02:18:10.181Z,0
2017-09-12T02:18:36.329Z,0
2017-09-12T02:19:02.477Z,0
2017-09-12T02:19:28.619Z,0
2017-09-12T02:19:54.771Z,0
2017-09-12T02:20:20.914Z,0
2017-09-12T02:20:47.066Z,0
2017-09-12T02:21:13.213Z,0
2017-09-12T02:21:39.378Z,0
2017-09-12T02:22:05.554Z,0
2017-09-12T02:22:31.697Z,0
2017-09-12T02:22:57.842Z,0
2017-09-12T02:23:23.989Z,0
2017-09-12T02:23:50.135Z,0
2017-09-12T02:24:16.282Z,0
2017-09-12T02:24:42.428Z,0
2017-09-12T02:25:08.579Z,0
2017-09-12T02:25:34.732Z,0
2017-09-12T02:26:00.897Z,0
2017-09-12T02:26:27.048Z,0
2017-09-12T02:26:53.194Z,0
2017-09-12T02:27:19.346Z,0
2017-09-12T02:27:45.487Z,0
2017-09-12T02:28:11.635Z,0
2017-09-12T02:28:37.778Z,0
2017-09-12T02:29:03.922Z,0
2017-09-12T02:29:30.064Z,0
2017-09-12T02:29:56.215Z,0
2017-09-12T02:30:22.365Z,0
2017-09-12T02:30:48.510Z,0
2017-09-12T02:31:14.665Z,0
2017-09-12T02:31:40.813Z,0
2017-09-12T02:32:06.980Z,0
2017-09-12T02:32:33.129Z,0
2017-09-12T02:32:59.274Z,0
2017-09-12T02:33:25.417Z,0
2017-09-12T02:33:51.563Z,0
2017-09-12T02:34:17.716Z,0
2017-09-12T02:34:43.854Z,0
2017-09-12T02:35:10.001Z,0
2017-09-12T02:35:36.149Z,0
2017-09-12T02:36:02.301Z,0
2017-09-12T02:36:28.449Z,0
2017-09-12T02:36:54.605Z,0
2017-09-12T02:37:20.746Z,0
2017-09-12T02:37:46.918Z,0
2017-09-12T02:38:13.067Z,0
2017-09-12T02:38:39.215Z,0
2017-09-12T02:39:05.360Z,0
2017-09-12T02:39:31.515Z,0
2017-09-12T02:39:57.686Z,0
2017-09-12T02:40:23.825Z,0
2017-09-12T02:40:49.976Z,0
2017-09-12T02:41:16.118Z,0
2017-09-12T02:41:42.279Z,0
2017-09-12T02:42:08.418Z,0
2017-09-12T02:42:34.568Z,0
2017-09-12T02:43:00.709Z,0
2017-09-12T02:43:26.860Z,0
2017-09-12T02:43:53.004Z,0
2017-09-12T02:44:19.147Z,0
2017-09-12T02:44:45.287Z,0
2017-09-12T02:45:11.436Z,0
2017-09-12T02:45:37.584Z,0
2017-09-12T02:46:03.725Z,0
2017-09-12T02:46:29.871Z,0
2017-09-12T02:46:56.016Z,0
2017-09-12T02:47:22.163Z,0
2017-09-12T02:47:48.314Z,0
2017-09-12T02:48:14.460Z,0
2017-09-12T02:48:40.604Z,0
2017-09-12T02:49:06.755Z,0
2017-09-12T02:49:32.901Z,0
2017-09-12T02:49:59.048Z,0
2017-09-12T02:50:25.197Z,0
2017-09-12T02:50:51.338Z,0
2017-09-12T02:51:17.492Z,0
2017-09-12T02:51:43.631Z,0
2017-09-12T02:52:09.782Z,0
2017-09-12T02:52:35.925Z,0
2017-09-12T02:53:02.078Z,0
2017-09-12T02:53:28.231Z,0
2017-09-12T02:53:54.372Z,0
2017-09-12T02:54:20.516Z,0
2017-09-12T02:54:46.666Z,0
2017-09-12T02:55:12.813Z,0
2017-09-12T02:55:38.957Z,0
2017-09-12T02:56:05.114Z,0
2017-09-12T02:56:31.259Z,0
2017-09-12T02:56:57.406Z,0
2017-09-12T02:57:23.550Z,0
2017-09-12T02:57:49.701Z,0
2017-09-12T02:58:15.846Z,0
2017-09-12T02:58:41.997Z,0
2017-09-12T02:59:08.139Z,0
2017-09-12T02:59:34.292Z,0
2017-09-12T03:00:00.433Z,0
2017-09-12T03:00:26.579Z,0
2017-09-12T03:00:52.729Z,0
2017-09-12T03:01:18.872Z,0
2017-09-12T03:01:45.022Z,0
2017-09-12T03:02:11.177Z,0
2017-09-12T03:02:37.320Z,0
2017-09-12T03:03:03.469Z,0
2017-09-12T03:03:29.609Z,0
2017-09-12T03:03:55.751Z,0
2017-09-12T03:04:21.930Z,0
2017-09-12T03:04:48.074Z,0
2017-09-12T03:05:14.250Z,0
2017-09-12T03:05:40.397Z,0
2017-09-12T03:06:06.546Z,0
2017-09-12T03:06:32.690Z,0
2017-09-12T03:06:58.841Z,0
2017-09-12T03:07:24.993Z,0
2017-09-12T03:07:51.139Z,0
2017-09-12T03:08:17.282Z,0
2017-09-12T03:08:43.427Z,0
2017-09-12T03:09:09.579Z,0
2017-09-12T03:09:35.722Z,0
2017-09-12T03:10:01.866Z,0
2017-09-12T03:10:28.018Z,0
2017-09-12T03:10:54.161Z,0
2017-09-12T03:11:20.313Z,0
2017-09-12T03:11:46.462Z,0
2017-09-12T03:12:12.607Z,0
2017-09-12T03:12:38.779Z,0
2017-09-12T03:13:04.923Z,0
2017-09-12T03:13:31.097Z,0
2017-09-12T03:13:57.241Z,0
2017-09-12T03:14:23.377Z,0
2017-09-12T03:14:49.534Z,0
2017-09-12T03:15:15.677Z,0
2017-09-12T03:15:41.838Z,0
2017-09-12T03:16:07.985Z,0
2017-09-12T03:16:34.154Z,0
2017-09-12T03:17:00.304Z,0
2017-09-12T03:17:26.452Z,0
2017-09-12T03:17:52.592Z,0
2017-09-12T03:18:18.750Z,0
2017-09-12T03:18:44.895Z,0
2017-09-12T03:19:11.069Z,0
2017-09-12T03:19:37.213Z,0
2017-09-12T03:20:03.361Z,0
2017-09-12T03:20:29.508Z,0
2017-09-12T03:20:55.650Z,0
2017-09-12T03:21:21.805Z,0
2017-09-12T03:21:47.952Z,0
2017-09-12T03:22:14.094Z,0
2017-09-12T03:22:40.239Z,0
2017-09-12T03:23:06.398Z,0
2017-09-12T03:23:32.537Z,0
2017-09-12T03:23:58.684Z,0
2017-09-12T03:24:24.831Z,0
2017-09-12T03:24:50.982Z,0
2017-09-12T03:25:17.128Z,0
2017-09-12T03:25:43.277Z,0
2017-09-12T03:26:09.417Z,0
2017-09-12T03:26:35.565Z,0
2017-09-12T03:27:01.713Z,0
2017-09-12T03:27:27.859Z,0
2017-09-12T03:27:54.010Z,0
2017-09-12T03:28:20.161Z,0
2017-09-12T03:28:46.301Z,0
2017-09-12T03:29:12.453Z,0
2017-09-12T03:29:38.595Z,0
2017-09-12T03:30:04.749Z,0
2017-09-12T03:30:30.891Z,0
2017-09-12T03:30:57.037Z,0
2017-09-12T03:31:23.188Z,0
2017-09-12T03:31:49.332Z,0
2017-09-12T03:32:15.484Z,0
2017-09-12T03:32:41.631Z,0
2017-09-12T03:33:07.779Z,0
2017-09-12T03:33:33.926Z,0
2017-09-12T03:34:00.073Z,0
2017-09-12T03:34:26.219Z,0
2017-09-12T03:34:52.365Z,0
2017-09-12T03:35:18.518Z,0
2017-09-12T03:35:44.689Z,0
2017-09-12T03:36:10.851Z,0
2017-09-12T03:36:36.997Z,0
2017-09-12T03:37:03.145Z,0
2017-09-12T03:37:29.297Z,0
2017-09-12T03:37:55.450Z,0
2017-09-12T03:38:21.599Z,0
2017-09-12T03:38:47.747Z,0
2017-09-12T03:39:13.887Z,0
2017-09-12T03:39:40.036Z,0
2017-09-12T03:40:06.183Z,0
2017-09-12T03:40:32.326Z,0
2017-09-12T03:40:58.473Z,0
2017-09-12T03:41:24.620Z,0
2017-09-12T03:41:50.771Z,0
2017-09-12T03:42:16.918Z,0
2017-09-12T03:42:43.063Z,0
2017-09-12T03:43:09.213Z,0
2017-09-12T03:43:35.359Z,0
2017-09-12T03:44:01.509Z,0
2017-09-12T03:44:27.651Z,0
2017-09-12T03:44:53.807Z,0
2017-09-12T03:45:19.957Z,0
2017-09-12T03:45:46.101Z,0
2017-09-12T03:46:12.247Z,0
2017-09-12T03:46:38.391Z,0
2017-09-12T03:47:04.538Z,0
2017-09-12T03:47:30.684Z,0
2017-09-12T03:47:56.834Z,0
2017-09-12T03:48:22.986Z,0
2017-09-12T03:48:49.126Z,0
2017-09-12T03:49:15.276Z,0
2017-09-12T03:49:41.420Z,0
2017-09-12T03:50:07.568Z,0
2017-09-12T03:50:33.719Z,0
2017-09-12T03:50:59.864Z,0
2017-09-12T03:51:26.014Z,0
2017-09-12T03:51:52.160Z,0
2017-09-12T03:52:18.308Z,0
2017-09-12T03:52:44.457Z,0
2017-09-12T03:53:10.633Z,0
2017-09-12T03:53:36.793Z,0
2017-09-12T03:54:02.928Z,0
2017-09-12T03:54:29.071Z,0
2017-09-12T03:54:55.224Z,0
2017-09-12T03:55:21.366Z,0
2017-09-12T03:55:47.518Z,0
2017-09-12T03:56:13.657Z,0
2017-09-12T03:56:39.809Z,0
2017-09-12T03:57:05.957Z,0
2017-09-12T03:57:32.104Z,0
2017-09-12T03:57:58.248Z,0
2017-09-12T03:58:24.392Z,0
2017-09-12T03:58:50.550Z,0
2017-09-12T03:59:16.698Z,0
2017-09-12T03:59:42.843Z,0
2017-09-12T04:00:08.987Z,0
2017-09-12T04:00:35.138Z,0
2017-09-12T04:01:01.281Z,0
2017-09-12T04:01:27.435Z,0
2017-09-12T04:01:53.574Z,0
2017-09-12T04:02:19.724Z,0
2017-09-12T04:02:45.871Z,0
2017-09-12T04:03:12.016Z,0
2017-09-12T04:03:38.165Z,0
2017-09-12T04:04:04.320Z,0
2017-09-12T04:04:30.458Z,0
2017-09-12T04:04:56.598Z,0
2017-09-12T04:05:22.773Z,0
2017-09-12T04:05:48.917Z,0
2017-09-12T04:06:15.069Z,0
2017-09-12T04:06:41.224Z,0
2017-09-12T04:07:07.392Z,0
2017-09-12T04:07:33.544Z,0
2017-09-12T04:07:59.690Z,0
2017-09-12T04:08:25.840Z,0
2017-09-12T04:08:51.986Z,0
2017-09-12T04:09:18.172Z,0
2017-09-12T04:09:44.314Z,0
2017-09-12T04:10:10.496Z,0
2017-09-12T04:10:36.640Z,0
2017-09-12T04:11:02.785Z,0
2017-09-12T04:11:28.932Z,0
2017-09-12T04:11:55.088Z,0
2017-09-12T04:12:21.228Z,0
2017-09-12T04:12:47.373Z,0
2017-09-12T04:13:13.525Z,0
2017-09-12T04:13:39.668Z,0
2017-09-12T04:14:05.817Z,0
2017-09-12T04:14:31.968Z,0
2017-09-12T04:14:58.115Z,0
2017-09-12T04:15:24.261Z,0
2017-09-12T04:15:50.406Z,0
2017-09-12T04:16:16.557Z,0
2017-09-12T04:16:42.701Z,0
2017-09-12T04:17:08.843Z,0
2017-09-12T04:17:34.997Z,0
2017-09-12T04:18:01.140Z,0
2017-09-12T04:18:27.294Z,0
2017-09-12T04:18:53.444Z,0
2017-09-12T04:19:19.588Z,0
2017-09-12T04:19:45.740Z,0
2017-09-12T04:20:11.883Z,0
2017-09-12T04:20:38.030Z,0
2017-09-12T04:21:04.175Z,0
2017-09-12T04:21:30.324Z,0
2017-09-12T04:21:56.477Z,0
2017-09-12T04:22:22.622Z,0
2017-09-12T04:22:48.772Z,0
2017-09-12T04:23:14.912Z,0
2017-09-12T04:23:41.055Z,0
2017-09-12T04:24:07.207Z,0
2017-09-12T04:24:33.349Z,0
2017-09-12T04:24:59.497Z,0
2017-09-12T04:25:25.644Z,0
2017-09-12T04:25:51.790Z,0
2017-09-12T04:26:17.946Z,0
2017-09-12T04:26:44.083Z,0
2017-09-12T04:27:10.236Z,0
2017-09-12T04:27:36.386Z,0
2017-09-12T04:28:02.532Z,0
2017-09-12T04:28:28.680Z,0
2017-09-12T04:28:54.824Z,0
2017-09-12T04:29:21.005Z,0
2017-09-12T04:29:47.177Z,0
2017-09-12T04:30:13.321Z,0
2017-09-12T04:30:39.463Z,4
2017-09-12T04:31:05.606Z,4
2017-09-12T04:31:31.759Z,4
2017-09-12T04:31:57.905Z,4
2017-09-12T04:32:24.053Z,0
2017-09-12T04:32:50.203Z,0
2017-09-12T04:33:16.345Z,0
2017-09-12T04:33:42.494Z,4
2017-09-12T04:34:08.639Z,4
2017-09-12T04:34:34.814Z,4
2017-09-12T04:35:00.993Z,4
2017-09-12T04:35:27.138Z,4
2017-09-12T04:35:53.287Z,0
2017-09-12T04:36:19.431Z,4
2017-09-12T04:36:45.586Z,4
2017-09-12T04:37:11.730Z,4
2017-09-12T04:37:37.877Z,4
2017-09-12T04:38:04.023Z,4
2017-09-12T04:38:30.179Z,8
2017-09-12T04:38:56.325Z,4
2017-09-12T04:39:22.467Z,8
2017-09-12T04:39:48.612Z,8
2017-09-12T04:40:14.766Z,8
2017-09-12T04:40:40.938Z,12
2017-09-12T04:41:07.062Z,16
2017-09-12T04:41:33.201Z,16
2017-09-12T04:41:59.414Z,16
2017-09-12T04:42:25.561Z,20
2017-09-12T04:42:51.710Z,20
2017-09-12T04:43:17.862Z,24
2017-09-12T04:43:44.003Z,28
2017-09-12T04:44:10.151Z,28
2017-09-12T04:44:36.289Z,32
2017-09-12T04:45:02.438Z,36
2017-09-12T04:45:28.588Z,32
2017-09-12T04:45:54.734Z,32
2017-09-12T04:46:20.884Z,36
2017-09-12T04:46:47.032Z,40
2017-09-12T04:47:13.194Z,44
2017-09-12T04:47:39.347Z,48
2017-09-12T04:48:05.491Z,44
2017-09-12T04:48:31.633Z,48
2017-09-12T04:48:57.778Z,52
2017-09-12T04:49:23.930Z,52
2017-09-12T04:49:50.078Z,48
2017-09-12T04:50:16.218Z,56
2017-09-12T04:50:42.373Z,56
2017-09-12T04:51:08.524Z,60
2017-09-12T04:51:34.670Z,64
2017-09-12T04:52:00.819Z,68
2017-09-12T04:52:26.997Z,76
2017-09-12T04:52:53.150Z,76
2017-09-12T04:53:19.290Z,80
2017-09-12T04:53:45.439Z,88
2017-09-12T04:54:11.583Z,92
2017-09-12T04:54:37.726Z,92
2017-09-12T04:55:03.871Z,104
2017-09-12T04:55:30.025Z,116
2017-09-12T04:55:56.171Z,124
2017-09-12T04:56:22.322Z,132
2017-09-12T04:56:48.468Z,140
2017-09-12T04:57:14.612Z,144
2017-09-12T04:57:40.758Z,148
2017-09-12T04:58:06.909Z,144
2017-09-12T04:58:33.060Z,140
2017-09-12T04:58:59.214Z,140
2017-09-12T04:59:25.353Z,144
2017-09-12T04:59:51.505Z,160
2017-09-12T05:00:17.656Z,172
2017-09-12T05:00:43.806Z,160
2017-09-12T05:01:09.948Z,168
2017-09-12T05:01:36.117Z,180
2017-09-12T05:02:02.265Z,192
2017-09-12T05:02:28.415Z,188
2017-09-12T05:02:54.565Z,184
2017-09-12T05:03:20.708Z,192
2017-09-12T05:03:46.860Z,208
2017-09-12T05:04:13.004Z,236
2017-09-12T05:04:39.153Z,256
2017-09-12T05:05:05.298Z,276
2017-09-12T05:05:31.441Z,280
2017-09-12T05:05:57.584Z,280
2017-09-12T05:06:23.736Z,280
2017-09-12T05:06:49.886Z,268
2017-09-12T05:07:16.032Z,248
2017-09-12T05:07:42.177Z,224
2017-09-12T05:08:08.328Z,228
2017-09-12T05:08:34.473Z,256
2017-09-12T05:09:00.626Z,284
2017-09-12T05:09:26.769Z,312
2017-09-12T05:09:52.924Z,304
2017-09-12T05:10:19.075Z,288
2017-09-12T05:10:45.217Z,280
2017-09-12T05:11:11.370Z,268
2017-09-12T05:11:37.516Z,268
2017-09-12T05:12:03.669Z,268
2017-09-12T05:12:29.808Z,284
2017-09-12T05:12:55.956Z,316
2017-09-12T05:13:22.104Z,324
2017-09-12T05:13:48.256Z,324
2017-09-12T05:14:14.420Z,340
2017-09-12T05:14:40.566Z,364
2017-09-12T05:15:06.716Z,420
2017-09-12T05:15:32.859Z,456
2017-09-12T05:15:59.013Z,516
2017-09-12T05:16:25.160Z,544
2017-09-12T05:16:51.339Z,612
2017-09-12T05:17:17.489Z,648
2017-09-12T05:17:43.633Z,648
2017-09-12T05:18:09.779Z,636
2017-09-12T05:18:35.923Z,600
2017-09-12T05:19:02.074Z,536
2017-09-12T05:19:28.215Z,520
2017-09-12T05:19:54.370Z,580
2017-09-12T05:20:20.513Z,632
2017-09-12T05:20:46.659Z,660
2017-09-12T05:21:12.841Z,640
2017-09-12T05:21:38.988Z,612
2017-09-12T05:22:05.129Z,580
2017-09-12T05:22:31.273Z,548
2017-09-12T05:22:57.424Z,532
2017-09-12T05:23:23.569Z,532
2017-09-12T05:23:49.724Z,564
2017-09-12T05:24:15.866Z,628
2017-09-12T05:24:42.011Z,684
2017-09-12T05:25:08.155Z,740
2017-09-12T05:25:34.307Z,820
2017-09-12T05:26:00.450Z,852
2017-09-12T05:26:26.604Z,864
2017-09-12T05:26:52.753Z,908
2017-09-12T05:27:18.902Z,1000
2017-09-12T05:27:45.080Z,1012
2017-09-12T05:28:11.221Z,944
2017-09-12T05:28:37.367Z,916
2017-09-12T05:29:03.521Z,876
2017-09-12T05:29:29.666Z,844
2017-09-12T05:29:55.854Z,896
2017-09-12T05:30:22.014Z,944
2017-09-12T05:30:48.176Z,1108
2017-09-12T05:31:14.330Z,1084
2017-09-12T05:31:40.472Z,1136
2017-09-12T05:32:06.616Z,1132
2017-09-12T05:32:32.766Z,1032
2017-09-12T05:32:58.918Z,1344
2017-09-12T05:33:25.086Z,1536
2017-09-12T05:33:51.242Z,1496
2017-09-12T05:34:17.388Z,1612
2017-09-12T05:34:43.529Z,1756
2017-09-12T05:35:09.677Z,1640
2017-09-12T05:35:35.829Z,1568
2017-09-12T05:36:01.972Z,1524
2017-09-12T05:36:28.140Z,1536
2017-09-12T05:36:54.269Z,1500
2017-09-12T05:37:20.410Z,1272
2017-09-12T05:37:46.560Z,1100
2017-09-12T05:38:12.711Z,1116
2017-09-12T05:38:38.852Z,1384
2017-09-12T05:39:05.006Z,1616
2017-09-12T05:39:31.145Z,1664
2017-09-12T05:39:57.299Z,1640
2017-09-12T05:40:23.452Z,1568
2017-09-12T05:40:49.603Z,1504
2017-09-12T05:41:15.740Z,1504
2017-09-12T05:41:41.892Z,1420
2017-09-12T05:42:08.040Z,1352
2017-09-12T05:42:34.225Z,1276
2017-09-12T05:43:00.335Z,1332
2017-09-12T05:43:26.503Z,1440
2017-09-12T05:43:52.656Z,1540
2017-09-12T05:44:18.810Z,1672
2017-09-12T05:44:44.955Z,1772
2017-09-12T05:45:11.106Z,1924
2017-09-12T05:45:37.249Z,2056
2017-09-12T05:46:03.403Z,2248
2017-09-12T05:46:29.547Z,2324
2017-09-12T05:46:55.689Z,2308
2017-09-12T05:47:21.842Z,2240
2017-09-12T05:47:47.994Z,2368
2017-09-12T05:48:14.138Z,2424
2017-09-12T05:48:40.280Z,2456
2017-09-12T05:49:06.432Z,2592
2017-09-12T05:49:32.575Z,2420
2017-09-12T05:49:58.729Z,2324
2017-09-12T05:50:24.883Z,2392
2017-09-12T05:50:51.027Z,2808
2017-09-12T05:51:17.178Z,3004
2017-09-12T05:51:43.325Z,3264
2017-09-12T05:52:09.476Z,2944
2017-09-12T05:52:35.624Z,2872
2017-09-12T05:53:01.769Z,3312
2017-09-12T05:53:27.920Z,3064
2017-09-12T05:53:54.069Z,2836
2017-09-12T05:54:20.210Z,2996
2017-09-12T05:54:46.358Z,3200
2017-09-12T05:55:12.504Z,2736
2017-09-12T05:55:38.656Z,2208
2017-09-12T05:56:04.795Z,2008
2017-09-12T05:56:30.945Z,1916
2017-09-12T05:56:57.119Z,2004
2017-09-12T05:57:23.268Z,2340
2017-09-12T05:57:49.413Z,3092
2017-09-12T05:58:15.561Z,2888
2017-09-12T05:58:41.712Z,2196
2017-09-12T05:59:07.859Z,1800
2017-09-12T05:59:34.007Z,1584
2017-09-12T06:00:00.150Z,1644
2017-09-12T06:00:26.325Z,1560
2017-09-12T06:00:52.469Z,1376
2017-09-12T06:01:18.616Z,1372
2017-09-12T06:01:44.770Z,1584
2017-09-12T06:02:10.913Z,1692
2017-09-12T06:02:37.060Z,1636
2017-09-12T06:03:03.204Z,1720
2017-09-12T06:03:29.342Z,1984
2017-09-12T06:03:55.499Z,2216
2017-09-12T06:04:21.645Z,2472
2017-09-12T06:04:47.790Z,3196
2017-09-12T06:05:13.942Z,3360
2017-09-12T06:05:40.084Z,3384
2017-09-12T06:06:06.228Z,3472
2017-09-12T06:06:32.383Z,3348
2017-09-12T06:06:58.527Z,3240
2017-09-12T06:07:24.781Z,3144
2017-09-12T06:07:50.900Z,2980
2017-09-12T06:08:17.051Z,2832
2017-09-12T06:08:43.228Z,3120
2017-09-12T06:09:09.408Z,3368
2017-09-12T06:09:35.580Z,3604
2017-09-12T06:10:01.727Z,4224
2017-09-12T06:10:27.875Z,5076
2017-09-12T06:10:54.194Z,5672
2017-09-12T06:11:20.346Z,5480
2017-09-12T06:11:46.505Z,4920
2017-09-12T06:12:12.646Z,4128
2017-09-12T06:12:38.798Z,4132
2017-09-12T06:13:04.942Z,4108
2017-09-12T06:13:31.088Z,4056
2017-09-12T06:13:57.231Z,4436
2017-09-12T06:14:23.380Z,5596
2017-09-12T06:14:49.528Z,6164
2017-09-12T06:15:15.671Z,5292
2017-09-12T06:15:41.825Z,4720
2017-09-12T06:16:07.971Z,4472
2017-09-12T06:16:34.122Z,4660
2017-09-12T06:17:00.262Z,5312
2017-09-12T06:17:26.417Z,6072
2017-09-12T06:17:52.559Z,6380